createdAt,value
2023-05-11T00:00:31.381Z,57.74
2023-05-11T00:01:33.758Z,57.58
2023-05-11T00:02:36.782Z,57.71
2023-05-11T00:03:38.686Z,57.70
2023-05-11T00:04:41.698Z,57.33
2023-05-11T00:05:47.702Z,57.90
2023-05-11T00:06:50.496Z,57.17
2023-05-11T00:07:52.364Z,57.50
2023-05-11T00:08:55.070Z,57.94
2023-05-11T00:09:56.894Z,57.76
2023-05-11T00:11:00.821Z,58.28
2023-05-11T00:12:04.242Z,57.88
2023-05-11T00:13:07.063Z,58.24
2023-05-11T00:14:08.822Z,58.10
2023-05-11T00:15:12.024Z,58.47
2023-05-11T00:16:14.689Z,58.42
2023-05-11T00:17:18.859Z,58.24
2023-05-11T00:18:21.278Z,57.82
2023-05-11T00:19:24.041Z,58.30
2023-05-11T00:20:25.904Z,57.93
2023-05-11T00:21:28.618Z,58.01
2023-05-11T00:22:30.459Z,57.99
2023-05-11T00:23:33.173Z,58.30
2023-05-11T00:24:34.924Z,58.52
2023-05-11T00:25:39.125Z,58.46
2023-05-11T00:26:40.874Z,58.58
2023-05-11T00:27:46.234Z,58.07
2023-05-11T00:28:48.335Z,59.03
2023-05-11T00:29:51.329Z,59.06
2023-05-11T00:30:56.095Z,59.09
2023-05-11T00:31:58.918Z,59.30
2023-05-11T00:33:00.819Z,59.04
2023-05-11T00:34:03.558Z,59.28
2023-05-11T00:35:06.533Z,59.48
2023-05-11T00:36:09.569Z,59.05
2023-05-11T00:37:11.333Z,59.31
2023-05-11T00:38:14.146Z,59.22
2023-05-11T00:39:16.154Z,59.19
2023-05-11T00:40:19.445Z,59.08
2023-05-11T00:41:21.686Z,59.43
2023-05-11T00:42:24.580Z,59.68
2023-05-11T00:43:27.791Z,59.75
2023-05-11T00:44:30.569Z,59.66
2023-05-11T00:45:32.530Z,60.08
2023-05-11T00:46:35.505Z,59.57
2023-05-11T00:47:37.545Z,59.80
2023-05-11T00:48:40.331Z,59.73
2023-05-11T00:49:42.342Z,60.03
2023-05-11T00:50:45.302Z,60.04
2023-05-11T00:51:47.171Z,60.29
2023-05-11T00:52:49.924Z,59.83
2023-05-11T00:53:52.035Z,60.77
2023-05-11T00:54:55.584Z,60.60
2023-05-11T00:55:57.383Z,60.69
2023-05-11T00:57:00.313Z,60.86
2023-05-11T00:58:05.492Z,60.99
2023-05-11T00:59:10.140Z,60.58
2023-05-11T01:00:13.093Z,60.90
2023-05-11T01:01:17.993Z,61.29
2023-05-11T01:02:19.982Z,61.43
2023-05-11T01:03:22.974Z,61.62
2023-05-11T01:04:25.162Z,61.71
2023-05-11T01:05:33.198Z,61.47
2023-05-11T01:06:44.570Z,61.63
2023-05-11T01:07:52.134Z,61.47
2023-05-11T01:08:58.168Z,61.60
2023-05-11T01:10:05.157Z,61.87
2023-05-11T01:11:14.499Z,61.99
2023-05-11T01:12:26.835Z,61.94
2023-05-11T01:13:32.197Z,61.39
2023-05-11T01:14:41.870Z,61.58
2023-05-11T01:15:47.020Z,61.75
2023-05-11T01:16:57.278Z,62.06
2023-05-11T01:18:02.002Z,62.83
2023-05-11T01:19:09.753Z,62.85
2023-05-11T01:20:17.405Z,62.82
2023-05-11T01:21:20.578Z,62.88
2023-05-11T01:22:31.298Z,63.14
2023-05-11T01:24:05.899Z,62.86
2023-05-11T01:25:18.123Z,62.70
2023-05-11T01:26:36.046Z,62.55
2023-05-11T01:27:55.126Z,62.60
2023-05-11T01:29:30.063Z,62.95
2023-05-11T01:30:37.594Z,62.47
2023-05-11T01:31:41.357Z,62.30
2023-05-11T01:32:45.688Z,63.11
2023-05-11T01:33:49.998Z,62.92
2023-05-11T01:34:56.869Z,63.31
2023-05-11T01:36:03.824Z,63.13
2023-05-11T01:37:11.972Z,63.59
2023-05-11T01:38:14.693Z,63.71
2023-05-11T01:39:18.940Z,63.95
2023-05-11T01:40:24.038Z,64.01
2023-05-11T01:41:27.590Z,63.99
2023-05-11T01:42:32.938Z,63.97
2023-05-11T01:43:36.477Z,64.12
2023-05-11T01:44:41.929Z,63.91
2023-05-11T01:47:31.533Z,63.66
2023-05-11T01:48:39.581Z,63.30
2023-05-11T01:49:43.868Z,63.22
2023-05-11T01:50:46.314Z,63.73
2023-05-11T01:51:51.386Z,63.89
2023-05-11T01:52:53.641Z,63.94
2023-05-11T01:53:57.386Z,63.93
2023-05-11T01:55:00.218Z,64.06
2023-05-11T01:56:03.679Z,64.05
2023-05-11T01:57:06.734Z,64.49
2023-05-11T01:58:11.573Z,64.43
2023-05-11T01:59:14.502Z,64.59
2023-05-11T02:00:20.698Z,64.42
2023-05-11T02:01:24.326Z,64.57
2023-05-11T02:02:28.801Z,64.83
2023-05-11T02:03:37.019Z,64.39
2023-05-11T02:04:42.666Z,64.59
2023-05-11T02:05:47.046Z,64.81
2023-05-11T02:06:52.656Z,64.72
2023-05-11T02:07:56.661Z,64.94
2023-05-11T02:09:00.422Z,64.66
2023-05-11T02:10:02.524Z,64.73
2023-05-11T02:11:07.818Z,64.87
2023-05-11T02:12:10.906Z,64.87
2023-05-11T03:47:54.834Z,63.77
2023-05-11T03:48:56.810Z,63.46
2023-05-11T03:50:05.140Z,63.97
2023-05-11T03:51:07.210Z,64.63
2023-05-11T03:52:11.726Z,65.61
2023-05-11T03:53:14.628Z,66.19
2023-05-11T03:54:19.254Z,66.58
2023-05-11T03:55:21.521Z,66.09
2023-05-11T03:56:24.534Z,66.18
2023-05-11T03:57:30.409Z,66.28
2023-05-11T03:58:33.420Z,66.50
2023-05-11T03:59:35.268Z,66.21
2023-05-11T04:00:41.674Z,66.56
2023-05-11T04:01:44.029Z,65.49
2023-05-11T04:02:47.004Z,65.51
2023-05-11T04:03:52.890Z,65.40
2023-05-11T04:04:55.933Z,64.60
2023-05-11T04:05:58.125Z,64.30
2023-05-11T04:07:01.214Z,63.76
2023-05-11T04:08:03.252Z,63.90
2023-05-11T04:09:06.175Z,63.05
2023-05-11T04:10:08.869Z,62.83
2023-05-11T04:11:11.988Z,62.32
2023-05-11T04:12:13.808Z,61.95
2023-05-11T04:13:18.659Z,61.73
2023-05-11T04:14:20.669Z,61.47
2023-05-11T04:15:23.903Z,61.40
2023-05-11T04:16:25.913Z,61.17
2023-05-11T04:17:28.737Z,60.91
2023-05-11T04:18:30.708Z,60.62
2023-05-11T04:19:34.905Z,59.97
2023-05-11T04:20:36.719Z,59.39
2023-05-11T04:21:39.577Z,60.08
2023-05-11T04:22:41.495Z,59.47
2023-05-11T04:23:44.236Z,59.39
2023-05-11T04:24:46.023Z,58.77
2023-05-11T04:25:53.447Z,58.57
2023-05-11T04:26:58.362Z,58.54
2023-05-11T04:28:01.113Z,58.21
2023-05-11T04:29:03.699Z,57.89
2023-05-11T04:30:07.772Z,58.29
2023-05-11T04:31:10.480Z,58.08
2023-05-11T04:32:13.739Z,57.57
2023-05-11T04:33:15.783Z,57.67
2023-05-11T04:34:19.071Z,57.32
2023-05-11T04:35:23.558Z,57.55
2023-05-11T04:36:26.286Z,57.22
2023-05-11T04:37:28.351Z,57.07
2023-05-11T04:38:31.295Z,56.50
2023-05-11T04:39:33.257Z,57.00
2023-05-11T04:40:37.276Z,56.32
2023-05-11T04:41:39.331Z,56.33
2023-05-11T04:42:43.678Z,56.04
2023-05-11T04:43:50.429Z,55.94
2023-05-11T04:44:54.268Z,55.64
2023-05-11T04:45:56.827Z,55.56
2023-05-11T04:47:02.701Z,55.29
2023-05-11T04:48:06.494Z,54.75
2023-05-11T04:49:09.520Z,54.87
2023-05-11T04:50:13.474Z,54.53
2023-05-11T04:51:17.767Z,54.21
2023-05-11T04:52:20.283Z,54.14
2023-05-11T04:53:25.396Z,54.66
2023-05-11T04:54:27.488Z,54.21
2023-05-11T04:55:30.943Z,54.45
2023-05-11T04:56:34.091Z,53.90
2023-05-11T04:57:38.700Z,53.94
2023-05-11T04:58:40.992Z,54.17
2023-05-11T04:59:44.970Z,54.14
2023-05-11T05:00:46.952Z,53.97
2023-05-11T05:01:49.812Z,53.58
2023-05-11T05:02:51.890Z,53.62
2023-05-11T05:03:54.807Z,54.04
2023-05-11T05:04:56.669Z,53.93
2023-05-11T05:05:59.486Z,53.81
2023-05-11T05:07:02.734Z,54.16
2023-05-11T05:08:05.582Z,54.30
2023-05-11T05:09:07.361Z,53.99
2023-05-11T05:10:12.523Z,53.75
2023-05-11T05:11:14.418Z,54.28
2023-05-11T05:12:17.683Z,54.22
2023-05-11T05:13:19.609Z,54.19
2023-05-11T05:14:22.408Z,54.16
2023-05-11T05:15:24.493Z,53.59
2023-05-11T05:16:27.433Z,54.44
2023-05-11T05:17:29.611Z,54.02
2023-05-11T05:18:32.752Z,54.52
2023-05-11T05:19:36.478Z,54.56
2023-05-11T05:20:39.701Z,54.46
2023-05-11T05:21:41.589Z,54.77
2023-05-11T05:22:45.767Z,54.56
2023-05-11T05:23:48.543Z,54.33
2023-05-11T05:24:50.515Z,54.18
2023-05-11T05:25:53.458Z,54.30
2023-05-11T05:26:55.369Z,54.51
2023-05-11T05:27:59.261Z,54.61
2023-05-11T05:29:01.577Z,54.18
2023-05-11T05:30:05.504Z,53.93
2023-05-11T05:31:07.419Z,53.86
2023-05-11T05:32:10.310Z,53.51
2023-05-11T05:33:13.563Z,53.31
2023-05-11T05:34:16.581Z,53.18
2023-05-11T05:35:20.086Z,53.20
2023-05-11T05:36:22.685Z,52.59
2023-05-11T05:37:25.403Z,52.01
2023-05-11T05:38:29.876Z,51.80
2023-05-11T05:39:32.774Z,51.35
2023-05-11T05:40:37.484Z,51.64
2023-05-11T05:41:43.089Z,51.52
2023-05-11T05:42:46.061Z,51.62
2023-05-11T05:43:51.566Z,51.16
2023-05-11T05:44:53.402Z,51.15
2023-05-11T05:45:56.996Z,51.49
2023-05-11T05:47:00.510Z,51.29
2023-05-11T05:48:09.516Z,50.98
2023-05-11T05:49:11.494Z,50.36
2023-05-11T05:50:14.419Z,50.61
2023-05-11T05:51:17.818Z,50.29
2023-05-11T05:52:20.628Z,50.07
2023-05-11T05:53:24.772Z,49.97
2023-05-11T05:54:28.003Z,49.57
2023-05-11T05:55:32.418Z,49.45
2023-05-11T05:56:37.005Z,49.40
2023-05-11T05:57:42.015Z,49.32
2023-05-11T05:58:44.961Z,49.12
2023-05-11T05:59:48.915Z,48.75
2023-05-11T06:00:53.545Z,48.52
2023-05-11T06:01:56.307Z,48.61
2023-05-11T06:02:59.469Z,48.76
2023-05-11T06:04:03.781Z,48.85
2023-05-11T06:05:07.911Z,48.27
2023-05-11T06:06:10.803Z,48.06
2023-05-11T06:07:14.114Z,48.13
2023-05-11T06:08:16.919Z,47.58
2023-05-11T06:09:18.692Z,47.77
2023-05-11T06:10:22.859Z,47.83
2023-05-11T06:11:24.660Z,47.39
2023-05-11T06:12:27.913Z,47.03
2023-05-11T06:13:32.379Z,46.82
2023-05-11T06:14:35.048Z,46.44
2023-05-11T06:15:39.116Z,46.29
2023-05-11T06:16:48.750Z,46.11
2023-05-11T06:17:50.707Z,45.62
2023-05-11T06:18:53.587Z,45.89
2023-05-11T06:19:56.864Z,45.99
2023-05-11T06:21:02.239Z,45.88
2023-05-11T06:22:07.869Z,46.11
2023-05-11T06:23:11.787Z,45.57
2023-05-11T06:24:15.620Z,45.11
2023-05-11T06:25:20.445Z,45.02
2023-05-11T06:26:25.325Z,44.63
2023-05-11T06:27:29.082Z,44.44
2023-05-11T06:28:33.535Z,44.37
2023-05-11T06:29:40.840Z,44.34
2023-05-11T06:30:42.652Z,44.25
2023-05-11T06:31:46.026Z,44.02
2023-05-11T06:32:47.972Z,44.08
2023-05-11T06:33:53.284Z,43.86
2023-05-11T06:35:01.342Z,44.01
2023-05-11T06:36:08.426Z,44.23
2023-05-11T06:37:11.228Z,43.68
2023-05-11T06:38:14.020Z,43.63
2023-05-11T06:39:16.350Z,43.52
2023-05-11T06:40:19.619Z,43.94
2023-05-11T06:41:21.611Z,43.83
2023-05-11T06:42:26.028Z,43.45
2023-05-11T06:43:38.809Z,43.65
2023-05-11T06:44:50.167Z,43.26
2023-05-11T06:45:52.241Z,42.85
2023-05-11T06:46:56.245Z,43.35
2023-05-11T06:47:59.184Z,42.95
2023-05-11T06:49:01.223Z,42.90
2023-05-11T06:50:04.212Z,42.57
2023-05-11T06:51:06.096Z,42.53
2023-05-11T06:52:09.162Z,42.59
2023-05-11T06:53:11.340Z,42.55
2023-05-11T06:54:14.156Z,41.93
2023-05-11T06:55:16.090Z,41.50
2023-05-11T06:56:19.484Z,41.34
2023-05-11T06:57:22.436Z,41.54
2023-05-11T06:58:26.889Z,41.34
2023-05-11T06:59:28.799Z,41.51
2023-05-11T07:00:31.567Z,41.06
2023-05-11T07:01:33.498Z,40.73
2023-05-11T07:02:36.266Z,41.11
2023-05-11T07:03:38.108Z,40.84
2023-05-11T07:04:41.249Z,40.24
2023-05-11T07:05:43.250Z,40.39
2023-05-11T07:06:46.457Z,40.33
2023-05-11T07:07:48.317Z,40.38
2023-05-11T07:08:51.135Z,40.64
2023-05-11T07:09:52.986Z,40.11
2023-05-11T07:10:56.104Z,39.96
2023-05-11T07:11:58.873Z,40.06
2023-05-11T07:13:00.642Z,40.28
2023-05-11T07:14:04.867Z,39.63
2023-05-11T07:15:08.785Z,39.44
2023-05-11T07:16:11.643Z,39.14
2023-05-11T07:17:13.560Z,38.98
2023-05-11T07:18:16.955Z,39.17
2023-05-11T07:19:18.990Z,39.57
2023-05-11T07:20:21.852Z,39.35
2023-05-11T07:21:23.680Z,38.95
2023-05-11T07:22:26.504Z,38.62
2023-05-11T07:23:28.972Z,38.71
2023-05-11T07:24:32.090Z,38.79
2023-05-11T07:25:34.126Z,39.02
2023-05-11T07:26:36.943Z,38.76
2023-05-11T07:27:38.727Z,38.91
2023-05-11T07:28:41.564Z,38.87
2023-05-11T07:29:45.995Z,39.13
2023-05-11T07:30:47.765Z,38.26
2023-05-11T07:31:50.600Z,37.72
2023-05-11T07:32:52.507Z,38.39
2023-05-11T07:33:55.303Z,38.04
2023-05-11T07:34:57.355Z,37.38
2023-05-11T07:36:00.260Z,37.50
2023-05-11T07:37:03.021Z,37.54
2023-05-11T07:38:07.744Z,37.37
2023-05-11T07:39:10.775Z,36.93
2023-05-11T07:40:12.748Z,36.47
2023-05-11T07:41:15.562Z,36.58
2023-05-11T07:42:17.354Z,36.94
2023-05-11T07:43:20.076Z,37.59
2023-05-11T07:44:22.831Z,37.16
2023-05-11T07:45:25.975Z,35.80
2023-05-11T07:46:28.839Z,35.85
2023-05-11T07:47:30.652Z,36.13
2023-05-11T07:48:33.396Z,35.86
2023-05-11T07:49:43.573Z,35.86
2023-05-11T07:50:47.020Z,35.60
2023-05-11T07:51:50.432Z,35.60
2023-05-11T07:52:52.254Z,36.46
2023-05-11T07:53:55.021Z,35.95
2023-05-11T07:54:57.817Z,35.47
2023-05-11T07:56:00.651Z,36.31
2023-05-11T07:57:04.153Z,36.19
2023-05-11T07:58:05.964Z,36.15
2023-05-11T07:59:08.698Z,36.19
2023-05-11T08:00:11.744Z,35.61
2023-05-11T08:01:18.465Z,35.44
2023-05-11T08:02:20.271Z,35.66
2023-05-11T08:03:23.190Z,35.90
2023-05-11T08:04:27.156Z,36.55
2023-05-11T08:05:33.007Z,35.79
2023-05-11T08:06:35.780Z,35.94
2023-05-11T08:07:41.010Z,36.44
2023-05-11T08:08:43.368Z,36.00
2023-05-11T08:09:46.201Z,36.00
2023-05-11T08:10:48.925Z,35.73
2023-05-11T08:11:50.735Z,35.05
2023-05-11T08:12:53.460Z,34.83
2023-05-11T08:13:55.430Z,34.38
2023-05-11T08:14:58.190Z,34.45
2023-05-11T08:16:00.702Z,35.09
2023-05-11T08:17:05.666Z,34.63
2023-05-11T08:18:08.579Z,34.75
2023-05-11T08:19:11.639Z,35.06
2023-05-11T08:20:14.731Z,35.51
2023-05-11T08:21:17.521Z,35.77
2023-05-11T08:22:20.331Z,35.55
2023-05-11T08:23:23.199Z,35.48
2023-05-11T08:24:26.056Z,34.81
2023-05-11T08:25:28.135Z,35.29
2023-05-11T08:26:30.982Z,34.89
2023-05-11T08:27:32.734Z,35.20
2023-05-11T08:28:35.482Z,34.63
2023-05-11T08:29:37.235Z,35.07
2023-05-11T08:30:39.964Z,34.90
2023-05-11T08:31:41.789Z,35.22
2023-05-11T08:32:58.036Z,34.85
2023-05-11T08:34:02.484Z,35.55
2023-05-11T08:35:06.474Z,35.96
2023-05-11T08:36:09.525Z,35.75
2023-05-11T08:37:12.724Z,35.45
2023-05-11T08:38:27.322Z,35.37
2023-05-11T08:39:45.438Z,35.15
2023-05-11T08:40:49.758Z,35.34
2023-05-11T08:41:52.655Z,35.43
2023-05-11T08:42:55.825Z,35.50
2023-05-11T08:43:59.309Z,34.59
2023-05-11T08:45:03.950Z,34.37
2023-05-11T08:46:08.287Z,34.27
2023-05-11T08:47:22.664Z,34.29
2023-05-11T08:48:27.657Z,35.06
2023-05-11T08:49:30.478Z,34.59
2023-05-11T08:50:32.235Z,34.73
2023-05-11T08:51:34.983Z,34.36
2023-05-11T08:52:36.816Z,33.75
2023-05-11T08:53:40.080Z,33.17
2023-05-11T08:54:41.877Z,33.46
2023-05-11T08:55:45.098Z,33.15
2023-05-11T08:56:48.006Z,33.11
2023-05-11T08:57:51.623Z,31.95
2023-05-11T08:58:56.079Z,31.34
2023-05-11T08:59:59.384Z,30.57
2023-05-11T09:01:02.368Z,30.52
2023-05-11T09:02:04.757Z,29.73
2023-05-11T09:03:08.349Z,29.69
2023-05-11T09:04:12.170Z,29.60
2023-05-11T09:05:15.354Z,29.64
2023-05-11T09:06:18.982Z,29.69
2023-05-11T09:07:23.055Z,29.79
2023-05-11T09:08:25.886Z,29.91
2023-05-11T09:09:28.658Z,29.46
2023-05-11T09:10:30.457Z,30.03
2023-05-11T09:11:33.340Z,29.78
2023-05-11T09:12:35.415Z,30.05
2023-05-11T09:13:38.166Z,29.67
2023-05-11T09:14:39.974Z,29.28
2023-05-11T09:15:42.785Z,28.50
2023-05-11T09:16:45.606Z,28.65
2023-05-11T09:17:48.429Z,28.92
2023-05-11T09:18:51.292Z,28.58
2023-05-11T09:20:05.275Z,28.37
2023-05-11T09:21:08.317Z,29.20
2023-05-11T09:22:10.158Z,28.16
2023-05-11T09:23:16.924Z,28.35
2023-05-11T09:24:21.045Z,28.36
2023-05-11T09:25:23.630Z,28.25
2023-05-11T09:26:29.172Z,28.32
2023-05-11T09:27:32.211Z,28.72
2023-05-11T09:28:36.008Z,28.92
2023-05-11T09:29:38.036Z,29.06
2023-05-11T09:30:40.772Z,28.33
2023-05-11T09:31:43.839Z,28.53
2023-05-11T09:32:54.131Z,28.35
2023-05-11T09:34:08.808Z,26.75
2023-05-11T09:35:22.020Z,28.53
2023-05-11T09:36:25.395Z,28.15
2023-05-11T09:37:27.162Z,28.15
2023-05-11T09:38:29.906Z,27.98
2023-05-11T09:39:39.545Z,28.16
2023-05-11T09:40:52.312Z,28.22
2023-05-11T09:42:12.420Z,27.64
2023-05-11T09:43:18.933Z,29.53
2023-05-11T09:44:21.646Z,28.91
2023-05-11T09:45:39.509Z,26.15
2023-05-11T09:46:43.786Z,28.58
2023-05-11T09:47:47.605Z,28.72
2023-05-11T09:49:00.271Z,28.20
2023-05-11T09:50:17.036Z,28.13
2023-05-11T09:51:29.602Z,28.18
2023-05-11T09:52:32.364Z,28.59
2023-05-11T09:53:35.805Z,28.03
2023-05-11T09:54:43.831Z,27.47
2023-05-11T09:55:51.990Z,27.53
2023-05-11T09:56:58.155Z,28.31
2023-05-11T09:58:00.191Z,27.82
2023-05-11T09:59:04.119Z,27.64
2023-05-11T10:00:14.506Z,27.86
2023-05-11T10:01:18.465Z,27.52
2023-05-11T10:02:23.692Z,27.91
2023-05-11T10:03:26.642Z,28.23
2023-05-11T10:04:30.875Z,27.55
2023-05-11T10:05:33.968Z,27.88
2023-05-11T10:06:49.481Z,27.27
2023-05-11T10:07:57.982Z,28.05
2023-05-11T10:09:10.031Z,27.27
2023-05-11T10:10:13.642Z,27.04
2023-05-11T10:11:15.620Z,26.63
2023-05-11T10:12:18.746Z,26.77
2023-05-11T10:13:21.192Z,26.17
2023-05-11T10:14:25.130Z,26.67
2023-05-11T10:15:29.114Z,26.09
2023-05-11T10:16:31.722Z,26.39
2023-05-11T10:17:35.265Z,26.36
2023-05-11T10:18:37.476Z,26.23
2023-05-11T10:19:40.321Z,26.77
2023-05-11T10:20:43.477Z,27.18
2023-05-11T10:21:47.880Z,26.07
2023-05-11T10:22:52.423Z,26.23
2023-05-11T10:23:55.486Z,27.04
2023-05-11T10:24:58.689Z,27.48
2023-05-11T10:26:01.769Z,26.77
2023-05-11T10:27:05.266Z,26.19
2023-05-11T10:28:07.167Z,25.65
2023-05-11T10:29:10.833Z,25.58
2023-05-11T10:30:13.526Z,25.48
2023-05-11T10:31:18.468Z,25.48
2023-05-11T10:32:21.262Z,25.79
2023-05-11T10:33:24.950Z,26.14
2023-05-11T10:34:29.673Z,25.96
2023-05-11T10:35:33.003Z,26.17
2023-05-11T10:36:36.080Z,26.05
2023-05-11T10:37:41.779Z,26.30
2023-05-11T10:38:43.716Z,26.64
2023-05-11T10:39:49.862Z,25.27
2023-05-11T10:40:52.984Z,26.40
2023-05-11T10:42:04.114Z,25.54
2023-05-11T10:43:20.510Z,25.64
2023-05-11T10:44:40.514Z,26.15
2023-05-11T10:45:51.161Z,27.13
2023-05-11T10:47:13.837Z,26.29
2023-05-11T10:48:32.669Z,26.15
2023-05-11T10:49:50.961Z,27.30
2023-05-11T10:51:01.236Z,28.18
2023-05-11T10:52:28.223Z,25.80
2023-05-11T10:53:41.650Z,25.59
2023-05-11T10:54:55.427Z,26.82
2023-05-11T10:56:06.307Z,26.54
2023-05-11T10:57:15.057Z,27.25
2023-05-11T10:58:23.182Z,26.77
2023-05-11T10:59:51.887Z,25.44
2023-05-11T11:01:21.777Z,26.23
2023-05-11T11:02:24.239Z,27.93
2023-05-11T11:03:27.191Z,28.09
2023-05-11T11:04:43.395Z,26.84
2023-05-11T11:05:46.332Z,27.45
2023-05-11T11:07:05.550Z,29.22
2023-05-11T11:08:09.458Z,28.85
2023-05-11T11:09:14.542Z,28.35
2023-05-11T11:10:31.379Z,27.58
2023-05-11T11:11:36.790Z,28.26
2023-05-11T11:12:39.669Z,27.86
2023-05-11T11:13:57.094Z,27.47
2023-05-11T11:15:01.137Z,27.70
2023-05-11T11:16:10.110Z,26.77
2023-05-11T11:17:27.435Z,26.10
2023-05-11T11:18:30.262Z,27.58
2023-05-11T11:19:42.506Z,27.76
2023-05-11T11:20:48.728Z,28.33
2023-05-11T11:21:51.704Z,28.52
2023-05-11T11:22:54.574Z,28.75
2023-05-11T11:23:56.656Z,29.16
2023-05-11T11:25:01.133Z,29.33
2023-05-11T11:26:03.087Z,28.61
2023-05-11T11:27:06.133Z,28.30
2023-05-11T11:28:09.320Z,28.80
2023-05-11T11:29:15.333Z,28.89
2023-05-11T11:30:19.228Z,28.41
2023-05-11T11:31:25.937Z,27.33
2023-05-11T11:32:29.384Z,27.58
2023-05-11T11:33:33.601Z,27.43
2023-05-11T11:34:37.463Z,27.85
2023-05-11T11:35:46.180Z,28.08
2023-05-11T11:37:04.848Z,28.08
2023-05-11T11:38:08.229Z,28.78
2023-05-11T11:39:10.249Z,27.93
2023-05-11T11:40:16.727Z,27.27
2023-05-11T11:41:29.281Z,26.43
2023-05-11T11:42:37.686Z,27.66
2023-05-11T11:43:45.658Z,27.73
2023-05-11T11:44:48.380Z,28.49
2023-05-11T11:45:52.755Z,28.25
2023-05-11T11:47:13.378Z,27.69
2023-05-11T11:48:16.652Z,28.33
2023-05-11T11:49:29.530Z,27.46
2023-05-11T11:50:31.384Z,28.02
2023-05-11T11:51:34.487Z,28.07
2023-05-11T11:52:36.368Z,28.48
2023-05-11T11:54:06.630Z,27.08
2023-05-11T11:55:09.383Z,28.89
2023-05-11T11:56:40.605Z,26.96
2023-05-11T11:57:46.629Z,28.50
2023-05-11T11:58:58.315Z,28.00
2023-05-11T12:00:01.488Z,28.42
2023-05-11T12:01:04.097Z,27.88
2023-05-11T12:02:07.011Z,27.84
2023-05-11T12:03:10.419Z,28.13
2023-05-11T12:04:41.928Z,26.85
2023-05-11T12:05:45.692Z,28.20
2023-05-11T12:06:56.303Z,27.92
2023-05-11T12:08:01.104Z,27.99
2023-05-11T12:09:03.503Z,27.91
2023-05-11T12:10:06.943Z,27.42
2023-05-11T12:11:08.891Z,27.52
2023-05-11T12:12:13.186Z,27.21
2023-05-11T12:13:22.075Z,27.14
2023-05-11T12:14:23.976Z,28.00
2023-05-11T12:15:27.892Z,27.97
2023-05-11T12:16:30.679Z,27.54
2023-05-11T12:17:34.663Z,27.81
2023-05-11T12:18:36.572Z,27.63
2023-05-11T12:19:39.379Z,28.04
2023-05-11T12:20:42.127Z,28.12
2023-05-11T12:21:45.103Z,28.39
2023-05-11T12:22:49.060Z,28.88
2023-05-11T12:23:52.867Z,28.66
2023-05-11T12:25:00.430Z,28.94
2023-05-11T12:26:02.794Z,29.32
2023-05-11T12:27:09.484Z,29.62
2023-05-11T12:28:13.630Z,29.75
2023-05-11T12:29:15.855Z,29.89
2023-05-11T12:30:22.869Z,30.92
2023-05-11T12:31:24.780Z,31.26
2023-05-11T12:32:29.060Z,30.96
2023-05-11T12:33:31.937Z,31.26
2023-05-11T12:34:34.660Z,30.79
2023-05-11T12:35:38.877Z,30.24
2023-05-11T12:36:41.880Z,29.48
2023-05-11T12:37:44.874Z,29.13
2023-05-11T12:38:47.590Z,28.95
2023-05-11T12:39:54.979Z,28.70
2023-05-11T12:40:56.776Z,28.81
2023-05-11T12:41:59.554Z,28.87
2023-05-11T12:43:01.358Z,29.03
2023-05-11T12:44:05.800Z,29.43
2023-05-11T12:45:09.808Z,29.20
2023-05-11T12:46:12.165Z,29.39
2023-05-11T12:47:15.607Z,29.60
2023-05-11T12:48:17.811Z,29.86
2023-05-11T12:50:26.335Z,29.81
2023-05-11T12:51:52.504Z,30.60
2023-05-11T12:52:55.274Z,30.53
2023-05-11T12:53:57.144Z,30.19
2023-05-11T12:55:01.074Z,30.10
2023-05-11T12:56:04.254Z,30.13
2023-05-11T12:57:08.058Z,29.44
2023-05-11T12:58:11.879Z,29.65
2023-05-11T12:59:34.782Z,28.07
2023-05-11T13:00:37.836Z,29.07
2023-05-11T13:01:40.624Z,28.56
2023-05-11T13:02:50.768Z,27.94
2023-05-11T13:03:53.688Z,28.08
2023-05-11T13:04:56.506Z,27.95
2023-05-11T13:06:05.537Z,27.80
2023-05-11T13:07:08.477Z,28.02
2023-05-11T13:08:14.626Z,28.38
2023-05-11T13:09:22.184Z,28.67
2023-05-11T13:10:25.437Z,29.04
2023-05-11T13:11:27.290Z,28.71
2023-05-11T13:12:32.272Z,28.83
2023-05-11T13:13:34.408Z,28.31
2023-05-11T13:14:38.738Z,28.34
2023-05-11T13:15:51.762Z,28.29
2023-05-11T13:16:54.181Z,27.92
2023-05-11T13:17:58.905Z,28.47
2023-05-11T13:19:01.898Z,28.53
2023-05-11T13:20:27.462Z,26.59
2023-05-11T13:21:29.730Z,27.17
2023-05-11T13:22:32.640Z,27.44
2023-05-11T13:23:36.832Z,27.36
2023-05-11T13:24:39.900Z,27.58
2023-05-11T13:25:53.032Z,28.55
2023-05-11T13:26:57.325Z,28.53
2023-05-11T13:28:01.471Z,27.64
2023-05-11T13:29:10.855Z,27.86
2023-05-11T13:30:18.529Z,27.52
2023-05-11T13:31:20.437Z,27.50
2023-05-11T13:32:23.342Z,28.36
2023-05-11T13:33:25.397Z,28.46
2023-05-11T13:34:28.124Z,28.63
2023-05-11T13:35:29.894Z,28.16
2023-05-11T13:36:34.343Z,27.75
2023-05-11T13:37:37.233Z,27.74
2023-05-11T13:38:39.676Z,28.04
2023-05-11T13:39:42.425Z,28.04
2023-05-11T13:40:44.219Z,28.19
2023-05-11T13:41:47.322Z,28.16
2023-05-11T13:42:50.078Z,28.05
2023-05-11T13:43:51.897Z,28.32
2023-05-11T13:44:54.690Z,28.58
2023-05-11T13:45:58.744Z,29.10
2023-05-11T13:47:01.566Z,29.43
2023-05-11T13:48:04.980Z,29.36
2023-05-11T13:49:07.002Z,29.31
2023-05-11T13:50:10.338Z,29.25
2023-05-11T13:51:12.126Z,29.05
2023-05-11T13:52:15.194Z,29.19
2023-05-11T13:53:16.943Z,29.27
2023-05-11T13:54:20.370Z,28.76
2023-05-11T13:55:22.307Z,28.47
2023-05-11T13:56:25.987Z,28.27
2023-05-11T13:57:28.752Z,28.44
2023-05-11T13:58:30.578Z,28.53
2023-05-11T13:59:33.291Z,28.31
2023-05-11T14:00:35.332Z,28.91
2023-05-11T14:01:39.579Z,28.19
2023-05-11T14:02:42.475Z,27.88
2023-05-11T14:03:44.393Z,27.88
2023-05-11T14:04:47.217Z,27.53
2023-05-11T14:05:49.156Z,27.33
2023-05-11T14:06:51.930Z,28.12
2023-05-11T14:07:53.768Z,27.42
2023-05-11T14:08:56.581Z,27.28
2023-05-11T14:09:59.386Z,27.17
2023-05-11T14:11:01.487Z,27.34
2023-05-11T14:12:04.665Z,27.00
2023-05-11T14:13:06.652Z,27.22
2023-05-11T14:14:09.426Z,27.63
2023-05-11T14:15:11.585Z,27.90
2023-05-11T14:16:14.798Z,27.81
2023-05-11T14:17:17.970Z,27.75
2023-05-11T14:18:20.980Z,28.21
2023-05-11T14:19:23.882Z,27.71
2023-05-11T14:20:25.777Z,27.57
2023-05-11T14:21:29.080Z,27.32
2023-05-11T14:22:31.075Z,27.62
2023-05-11T14:23:34.490Z,27.41
2023-05-11T14:24:37.564Z,27.32
2023-05-11T14:25:39.560Z,27.22
2023-05-11T14:26:42.471Z,27.38
2023-05-11T14:27:44.282Z,27.17
2023-05-11T14:28:47.485Z,26.75
2023-05-11T14:29:51.442Z,27.17
2023-05-11T14:30:54.216Z,27.32
2023-05-11T14:31:56.339Z,27.30
2023-05-11T14:33:01.332Z,26.85
2023-05-11T14:34:03.428Z,26.29
2023-05-11T14:35:06.948Z,26.12
2023-05-11T14:36:09.637Z,26.57
2023-05-11T14:37:13.132Z,26.47
2023-05-11T14:38:15.763Z,27.07
2023-05-11T14:39:18.608Z,27.32
2023-05-11T14:40:21.466Z,27.11
2023-05-11T14:41:24.286Z,26.84
2023-05-11T14:42:26.258Z,26.95
2023-05-11T14:43:29.160Z,26.76
2023-05-11T14:44:31.746Z,26.76
2023-05-11T14:45:34.853Z,26.79
2023-05-11T14:46:37.657Z,27.22
2023-05-11T14:47:40.275Z,27.18
2023-05-11T14:48:44.457Z,26.96
2023-05-11T14:49:46.316Z,26.96
2023-05-11T14:50:49.102Z,26.88
2023-05-11T14:51:51.959Z,26.59
2023-05-11T14:52:53.812Z,27.01
2023-05-11T14:53:56.580Z,27.09
2023-05-11T14:54:58.451Z,27.19
2023-05-11T14:56:01.410Z,27.14
2023-05-11T14:57:04.200Z,27.09
2023-05-11T14:58:09.240Z,26.88
2023-05-11T14:59:11.021Z,26.98
2023-05-11T15:00:14.931Z,26.84
2023-05-11T15:01:16.801Z,26.69
2023-05-11T15:02:19.643Z,26.80
2023-05-11T15:03:21.525Z,27.09
2023-05-11T15:04:26.020Z,26.53
2023-05-11T15:05:27.819Z,26.50
2023-05-11T15:06:30.634Z,26.50
2023-05-11T15:07:32.486Z,26.69
2023-05-11T15:08:35.219Z,26.57
2023-05-11T15:09:36.980Z,26.58
2023-05-11T15:10:40.475Z,26.70
2023-05-11T15:11:42.266Z,26.80
2023-05-11T15:12:45.011Z,26.64
2023-05-11T15:13:47.572Z,26.64
2023-05-11T15:14:50.551Z,26.42
2023-05-11T15:15:52.483Z,26.76
2023-05-11T15:16:58.875Z,27.15
2023-05-11T15:18:00.981Z,27.40
2023-05-11T15:19:05.354Z,27.62
2023-05-11T15:20:10.123Z,27.34
2023-05-11T15:21:12.887Z,27.52
2023-05-11T15:22:14.660Z,27.18
2023-05-11T15:23:17.806Z,27.26
2023-05-11T15:24:19.573Z,27.33
2023-05-11T15:25:22.562Z,27.41
2023-05-11T15:26:25.045Z,27.21
2023-05-11T15:27:27.889Z,27.40
2023-05-11T15:28:29.701Z,27.08